Time;durP1;ratioP1;P1;durP2;ratioP2;P2;SDS_P1;SDS_P2;PMS_P1;PMS_P2;Temp;Humidity;BMP_temperature;BMP_pressure;BME280_temperature;BME280_humidity;BME280_pressure;Samples;Min_cycle;Max_cycle;Signal;HPM_P1;HPM_P2
2022/01/04 00:01:34;;;;;;;57.42;32.80;;;;;;;1.70;100.00;93137.78;5072971;28;20505;-84
2022/01/04 00:04:01;;;;;;;46.95;28.02;;;;;;;1.66;100.00;93133.97;5073111;28;20411;-84
2022/01/04 00:06:29;;;;;;;48.70;28.90;;;;;;;1.65;100.00;93124.81;5072763;28;20055;-84
2022/01/04 00:09:00;;;;;;;49.70;28.77;;;;;;;1.65;100.00;93112.13;5072879;28;20102;-84
2022/01/04 00:11:42;;;;;;;49.75;29.17;;;;;;;1.70;100.00;93119.25;5071748;28;20048;-84
2022/01/04 00:14:08;;;;;;;37.55;24.33;;;;;;;1.62;100.00;93104.84;5072956;28;20044;-84
2022/01/04 00:16:35;;;;;;;38.05;23.42;;;;;;;1.66;100.00;93128.13;5072753;28;20410;-84
2022/01/04 00:19:02;;;;;;;35.15;21.80;;;;;;;1.67;100.00;93138.09;5072094;28;20423;-84
2022/01/04 00:21:30;;;;;;;33.28;20.15;;;;;;;1.71;100.00;93123.41;5072641;28;20044;-83
2022/01/04 00:23:57;;;;;;;27.35;16.58;;;;;;;1.69;100.00;93125.28;5071654;28;20048;-83
2022/01/04 00:26:24;;;;;;;22.58;14.07;;;;;;;1.66;100.00;93131.44;5071942;28;20053;-84
2022/01/04 00:28:50;;;;;;;21.95;14.40;;;;;;;1.66;100.00;93133.97;5072522;28;20544;-83
2022/01/04 00:31:17;;;;;;;51.00;25.73;;;;;;;1.62;100.00;93139.50;5072605;28;20056;-83
2022/01/04 00:33:44;;;;;;;28.63;18.02;;;;;;;1.49;100.00;93123.06;5072398;28;20505;-83
2022/01/04 00:36:11;;;;;;;23.70;15.52;;;;;;;1.59;100.00;93136.34;5072252;28;20044;-83
2022/01/04 00:38:39;;;;;;;22.60;14.00;;;;;;;1.55;100.00;93131.75;5072025;28;20067;-84
2022/01/04 00:41:06;;;;;;;25.98;13.63;;;;;;;1.50;100.00;93134.75;5072169;28;20109;-84
2022/01/04 00:43:33;;;;;;;25.52;15.20;;;;;;;1.45;100.00;93142.78;5072117;28;20048;-83
2022/01/04 00:46:00;;;;;;;25.63;15.63;;;;;;;1.39;100.00;93150.25;5072253;28;20487;-84
2022/01/04 00:51:13;;;;;;;32.10;20.02;;;;;;;1.02;100.00;93140.31;5071227;28;20167;-84
2022/01/04 00:53:41;;;;;;;32.50;18.95;;;;;;;0.92;100.00;93120.19;5071768;28;20052;-83
2022/01/04 00:56:08;;;;;;;28.63;17.88;;;;;;;1.00;100.00;93119.44;5071954;28;20063;-84
2022/01/04 00:58:35;;;;;;;30.52;16.85;;;;;;;1.13;100.00;93131.66;5072125;28;20051;-83
2022/01/04 01:01:01;;;;;;;33.40;17.85;;;;;;;1.15;100.00;93127.22;5071885;28;20098;-83
2022/01/04 01:03:29;;;;;;;25.80;15.98;;;;;;;1.19;100.00;93125.19;5071647;28;20055;-83
2022/01/04 01:05:56;;;;;;;20.15;14.13;;;;;;;1.19;100.00;93125.19;5071674;28;20044;-83
2022/01/04 01:08:22;;;;;;;24.15;14.48;;;;;;;1.13;100.00;93115.69;5071530;28;20487;-83
2022/01/04 01:10:50;;;;;;;20.45;13.73;;;;;;;1.24;100.00;93125.50;5071938;28;20044;-83
2022/01/04 01:13:18;;;;;;;58.47;28.85;;;;;;;1.14;100.00;93118.06;5071774;28;20052;-83
2022/01/04 01:15:46;;;;;;;41.88;22.70;;;;;;;0.93;100.00;93085.59;5071682;28;20381;-84
2022/01/04 01:18:15;;;;;;;26.77;18.23;;;;;;;0.96;100.00;93087.03;5071318;28;20088;-84
2022/01/04 01:20:41;;;;;;;24.27;13.93;;;;;;;1.10;100.00;93121.06;5071408;28;20545;-84
2022/01/04 01:23:08;;;;;;;23.40;14.27;;;;;;;1.06;100.00;93118.81;5071439;28;20059;-84
2022/01/04 01:25:35;;;;;;;21.38;14.60;;;;;;;1.04;100.00;93115.66;5071422;28;20502;-84
2022/01/04 01:28:04;;;;;;;23.35;16.05;;;;;;;1.12;100.00;93109.03;5071585;28;20392;-84
2022/01/04 01:30:34;;;;;;;25.08;15.00;;;;;;;1.03;100.00;93088.78;5071257;28;20052;-84
2022/01/04 01:33:01;;;;;;;21.27;13.68;;;;;;;1.13;100.00;93110.63;5071055;28;20045;-84
2022/01/04 01:35:28;;;;;;;22.35;13.70;;;;;;;1.16;100.00;93112.84;5071284;28;20503;-84
2022/01/04 01:37:55;;;;;;;21.48;13.68;;;;;;;1.19;100.00;93104.94;5071120;28;20044;-84
2022/01/04 01:40:21;;;;;;;20.88;13.80;;;;;;;1.18;100.00;93116.81;5071316;28;20389;-84
2022/01/04 01:42:48;;;;;;;20.20;12.43;;;;;;;1.16;100.00;93108.56;5071040;28;20052;-84
2022/01/04 01:45:17;;;;;;;18.88;12.40;;;;;;;1.12;100.00;93109.84;5071085;28;20056;-84
2022/01/04 01:47:44;;;;;;;16.98;11.43;;;;;;;0.97;100.00;93093.66;5070745;28;20505;-84
2022/01/04 01:50:12;;;;;;;19.25;11.93;;;;;;;1.01;100.00;93100.78;5071261;28;20048;-84
2022/01/04 01:52:40;;;;;;;21.05;13.75;;;;;;;0.93;100.00;93086.38;5070963;28;20044;-84
2022/01/04 01:55:09;;;;;;;27.48;17.85;;;;;;;0.74;100.00;93072.25;5070903;28;20048;-84
2022/01/04 01:57:35;;;;;;;29.92;20.10;;;;;;;0.79;100.00;93079.41;5070619;28;20048;-84
2022/01/04 02:00:06;;;;;;;30.85;20.10;;;;;;;0.83;100.00;93082.41;5070704;28;20055;-84
2022/01/04 02:02:34;;;;;;;28.83;17.70;;;;;;;0.78;100.00;93081.13;5071077;28;20071;-84
2022/01/04 02:05:01;;;;;;;31.30;20.92;;;;;;;0.72;100.00;93058.19;5071076;28;20415;-84
2022/01/04 02:07:28;;;;;;;27.45;18.20;;;;;;;0.96;100.00;93084.50;5070668;28;20099;-84
2022/01/04 02:10:02;;;;;;;28.63;19.02;;;;;;;0.95;100.00;93087.94;5070676;28;20052;-84
2022/01/04 02:12:31;;;;;;;28.30;18.33;;;;;;;0.77;100.00;93068.63;5070153;28;20171;-85
2022/01/04 02:14:58;;;;;;;30.60;18.55;;;;;;;0.86;100.00;93072.78;5070526;28;20490;-84
2022/01/04 02:17:24;;;;;;;35.85;22.27;;;;;;;0.85;100.00;93080.50;5070664;28;20048;-84
2022/01/04 02:19:53;;;;;;;37.10;21.75;;;;;;;0.89;100.00;93082.56;5070615;28;20071;-85
2022/01/04 02:22:20;;;;;;;32.83;21.30;;;;;;;0.95;100.00;93087.94;5071000;28;20048;-84
2022/01/04 02:24:47;;;;;;;33.33;20.42;;;;;;;0.95;100.00;93093.00;5070404;28;20135;-84
2022/01/04 02:27:16;;;;;;;36.42;19.95;;;;;;;0.97;100.00;93091.13;5070234;28;20414;-85
2022/01/04 02:29:43;;;;;;;28.15;18.83;;;;;;;0.84;100.00;93076.41;5070444;28;20086;-85
2022/01/04 02:32:10;;;;;;;28.70;18.55;;;;;;;0.97;100.00;93091.13;5070371;28;20549;-85
2022/01/04 02:34:38;;;;;;;25.85;16.80;;;;;;;0.95;100.00;93088.75;5070979;28;20482;-84
2022/01/04 02:37:06;;;;;;;24.98;15.60;;;;;;;0.93;100.00;93088.91;5074374;28;20060;-84
2022/01/04 02:39:36;;;;;;;21.15;14.10;;;;;;;0.94;100.00;93097.28;5074443;28;20052;-85
2022/01/04 02:42:04;;;;;;;20.40;14.27;;;;;;;0.83;100.00;93084.94;5074438;28;20479;-84
2022/01/04 02:44:30;;;;;;;22.73;13.40;;;;;;;0.85;100.00;93090.63;5074705;28;20463;-85
2022/01/04 02:46:57;;;;;;;19.00;12.60;;;;;;;0.68;100.00;93077.13;5074436;28;20045;-85
2022/01/04 02:49:24;;;;;;;21.25;13.77;;;;;;;0.89;100.00;93095.22;5074362;28;20433;-84
2022/01/04 02:51:51;;;;;;;21.70;14.82;;;;;;;0.83;100.00;93097.56;5074288;28;20044;-85
2022/01/04 02:54:19;;;;;;;20.75;13.40;;;;;;;0.68;100.00;93087.25;5074185;28;20425;-85
2022/01/04 02:56:46;;;;;;;20.13;14.10;;;;;;;0.73;100.00;93090.09;5074012;28;20057;-85
2022/01/04 02:59:13;;;;;;;19.90;11.77;;;;;;;0.76;100.00;93093.13;5074368;28;20454;-85
2022/01/04 03:01:40;;;;;;;17.98;12.10;;;;;;;0.68;100.00;93088.03;5074294;28;20041;-85
2022/01/04 03:04:07;;;;;;;15.90;10.40;;;;;;;0.66;100.00;93082.34;5073955;28;20052;-85
2022/01/04 03:06:35;;;;;;;14.40;7.47;;;;;;;0.70;100.00;93085.34;5073893;28;20045;-85
2022/01/04 03:09:02;;;;;;;11.02;7.57;;;;;;;0.72;100.00;93084.25;5074038;28;20057;-85
2022/01/04 03:11:30;;;;;;;13.43;7.40;;;;;;;0.50;100.00;93050.19;5073927;28;20052;-85
2022/01/04 03:13:57;;;;;;;12.05;7.55;;;;;;;0.77;100.00;93098.97;5073913;28;20049;-85
2022/01/04 03:16:24;;;;;;;13.68;9.07;;;;;;;0.78;100.00;93096.28;5073974;28;20066;-85
2022/01/04 03:19:03;;;;;;;15.20;8.70;;;;;;;0.71;100.00;93095.31;5073758;28;20381;-85
2022/01/04 03:21:31;;;;;;;15.13;10.35;;;;;;;0.67;100.00;93088.97;5073618;28;20059;-85
2022/01/04 03:23:58;;;;;;;15.73;11.15;;;;;;;0.66;100.00;93093.22;5074059;28;20052;-85
2022/01/04 03:26:25;;;;;;;17.67;11.55;;;;;;;0.61;100.00;93080.25;5073916;28;20094;-85
2022/01/04 03:28:54;;;;;;;17.67;12.07;;;;;;;0.56;100.00;93063.97;5073789;28;20045;-85
2022/01/04 03:31:21;;;;;;;20.98;12.38;;;;;;;0.71;100.00;93081.88;5073663;28;20051;-85
2022/01/04 03:33:48;;;;;;;17.50;12.02;;;;;;;0.62;100.00;93089.44;5073623;28;20468;-85
2022/01/04 03:36:15;;;;;;;16.83;11.55;;;;;;;0.36;100.00;93059.94;5073817;28;20130;-85
2022/01/04 03:38:43;;;;;;;18.80;13.55;;;;;;;0.52;100.00;93073.59;5073674;28;20048;-85
2022/01/04 03:41:10;;;;;;;21.50;13.25;;;;;;;0.47;100.00;93063.16;5073601;28;20478;-85
2022/01/04 03:43:38;;;;;;;20.58;13.85;;;;;;;0.52;100.00;93084.47;5073566;28;20419;-85
2022/01/04 03:46:07;;;;;;;19.95;14.23;;;;;;;0.31;100.00;93051.22;5073389;28;20166;-85
2022/01/04 03:48:35;;;;;;;22.75;13.98;;;;;;;0.49;100.00;93082.28;5073306;28;20044;-85
2022/01/04 03:51:02;;;;;;;20.85;13.65;;;;;;;0.55;100.00;93077.56;5073707;28;20110;-85
2022/01/04 03:53:29;;;;;;;18.17;12.27;;;;;;;0.56;100.00;93079.13;5073240;28;20518;-85
2022/01/04 03:55:56;;;;;;;20.73;12.57;;;;;;;0.56;100.00;93082.47;5073629;28;20085;-85
2022/01/04 03:58:23;;;;;;;24.05;14.82;;;;;;;0.53;100.00;93078.50;5073215;28;20498;-85
2022/01/04 04:00:50;;;;;;;22.23;14.50;;;;;;;0.43;100.00;93062.66;5072884;28;20491;-85
2022/01/04 04:03:18;;;;;;;24.42;14.95;;;;;;;0.52;100.00;93068.53;5073296;28;20056;-85
2022/01/04 04:05:45;;;;;;;20.17;14.45;;;;;;;0.52;100.00;93063.47;5073181;28;20102;-85
2022/01/04 04:08:12;;;;;;;23.90;15.05;;;;;;;0.44;100.00;93055.84;5072831;28;20044;-85
2022/01/04 04:10:39;;;;;;;20.48;14.93;;;;;;;0.34;100.00;93041.63;5073037;28;20094;-85
2022/01/04 04:13:06;;;;;;;22.92;15.07;;;;;;;0.51;100.00;93069.50;5072982;28;20071;-85
2022/01/04 04:15:33;;;;;;;28.02;17.92;;;;;;;0.46;100.00;93067.41;5072719;28;20094;-85
2022/01/04 04:18:00;;;;;;;26.17;17.13;;;;;;;0.39;100.00;93069.75;5072798;28;20495;-85
2022/01/04 04:20:28;;;;;;;25.63;16.48;;;;;;;0.41;100.00;93073.88;5072944;28;20048;-85
2022/01/04 04:22:55;;;;;;;24.15;15.48;;;;;;;0.45;100.00;93067.53;5072662;28;20815;-85
2022/01/04 04:25:21;;;;;;;24.48;16.77;;;;;;;0.38;100.00;93060.56;5072738;28;20051;-85
2022/01/04 04:27:48;;;;;;;21.73;15.60;;;;;;;0.49;100.00;93068.84;5072635;28;20445;-85
2022/01/04 04:30:15;;;;;;;19.92;14.70;;;;;;;0.37;100.00;93053.16;5060641;28;20423;-85
2022/01/04 04:32:42;;;;;;;20.70;14.55;;;;;;;0.49;100.00;93054.47;5072508;28;20041;-85
2022/01/04 04:35:09;;;;;;;19.50;13.57;;;;;;;0.50;100.00;93057.78;5072617;28;20094;-85
2022/01/04 04:37:37;;;;;;;17.63;11.82;;;;;;;0.47;100.00;93060.63;5072530;28;20098;-85
2022/01/04 04:40:05;;;;;;;18.65;11.82;;;;;;;0.45;100.00;93067.53;5072222;28;20060;-85
2022/01/04 04:42:35;;;;;;;20.58;12.55;;;;;;;0.19;100.00;93035.53;5072273;28;20415;-85
2022/01/04 04:45:04;;;;;;;16.50;12.15;;;;;;;0.44;100.00;93079.41;5072516;28;20040;-85
2022/01/04 04:47:31;;;;;;;20.60;11.98;;;;;;;0.39;100.00;93071.47;5072445;28;20040;-85
2022/01/04 04:49:57;;;;;;;20.65;11.25;;;;;;;0.42;100.00;93083.81;5072353;28;20098;-85
2022/01/04 04:52:24;;;;;;;19.65;11.82;;;;;;;0.42;100.00;93077.97;5071510;28;20048;-85
2022/01/04 04:54:53;;;;;;;15.15;10.02;;;;;;;0.38;100.00;93075.72;5072105;28;20044;-85
2022/01/04 04:57:19;;;;;;;20.15;11.07;;;;;;;0.37;100.00;93081.72;5071636;28;20055;-84
2022/01/04 04:59:46;;;;;;;20.27;12.55;;;;;;;0.16;100.00;93049.25;5071895;28;20052;-85
2022/01/04 05:02:13;;;;;;;17.40;12.10;;;;;;;0.31;100.00;93072.22;5072095;28;20053;-85
2022/01/04 05:04:40;;;;;;;20.25;12.18;;;;;;;0.16;100.00;93054.31;5071881;28;20053;-85
2022/01/04 05:07:07;;;;;;;21.15;12.75;;;;;;;0.26;100.00;93082.00;5070636;28;20052;-85
2022/01/04 05:09:33;;;;;;;15.00;10.35;;;;;;;0.24;100.00;93083.88;5070304;28;20048;-84
2022/01/04 05:12:02;;;;;;;16.88;11.10;;;;;;;0.12;100.00;93073.22;5071403;28;20048;-84
2022/01/04 05:14:29;;;;;;;14.98;9.48;;;;;;;0.09;100.00;93076.84;5070538;28;20571;-85
2022/01/04 05:16:56;;;;;;;11.90;7.97;;;;;;;0.10;100.00;93072.59;5071169;28;20048;-84
2022/01/04 05:19:23;;;;;;;10.57;6.53;;;;;;;0.05;100.00;93079.81;5070937;28;20049;-85
2022/01/04 05:21:49;;;;;;;9.82;7.07;;;;;;;-0.22;100.00;93036.09;5070796;28;20637;-85
2022/01/04 05:24:16;;;;;;;9.57;6.75;;;;;;;-0.06;100.00;93073.25;5070713;28;20491;-85
2022/01/04 05:26:43;;;;;;;9.55;6.80;;;;;;;-0.16;100.00;93075.88;5070782;28;20045;-85
2022/01/04 05:29:11;;;;;;;12.27;9.13;;;;;;;-0.29;100.00;93074.53;5070841;28;20048;-84
2022/01/04 05:31:38;;;;;;;15.18;11.73;;;;;;;-0.25;100.00;93064.94;5070643;28;20048;-85
2022/01/04 05:34:05;;;;;;;17.17;12.32;;;;;;;-0.37;100.00;93044.19;5070704;28;20047;-85
2022/01/04 05:36:32;;;;;;;17.33;11.93;;;;;;;-0.22;100.00;93069.72;5068140;28;20044;-85
2022/01/04 05:39:00;;;;;;;22.65;14.52;;;;;;;-0.17;100.00;93059.16;5070534;28;20044;-85
2022/01/04 05:41:27;;;;;;;22.80;15.40;;;;;;;-0.23;100.00;93050.44;5070644;28;20052;-84
2022/01/04 05:43:54;;;;;;;22.83;15.05;;;;;;;-0.17;100.00;93077.63;5070744;28;20044;-85
2022/01/04 05:46:22;;;;;;;22.13;14.50;;;;;;;-0.27;100.00;93055.00;5070591;28;20502;-84
2022/01/04 05:48:49;;;;;;;19.60;13.27;;;;;;;-0.14;100.00;93059.66;5070454;28;20055;-85
2022/01/04 05:51:16;;;;;;;26.42;16.02;;;;;;;-0.03;100.00;93068.75;5070369;28;20098;-85
2022/01/04 05:53:42;;;;;;;44.22;24.60;;;;;;;-0.02;100.00;93074.56;5070629;28;20048;-84
2022/01/04 05:56:09;;;;;;;27.23;17.05;;;;;;;0.03;100.00;93082.50;5070329;28;20044;-84
2022/01/04 05:58:36;;;;;;;26.65;16.35;;;;;;;0.02;100.00;93078.38;5070623;28;20037;-85
2022/01/04 06:01:03;;;;;;;25.02;15.90;;;;;;;-0.01;100.00;93079.47;5070435;28;20053;-84
2022/01/04 06:03:31;;;;;;;24.38;15.10;;;;;;;-0.03;100.00;93073.78;5070237;28;20041;-85
2022/01/04 06:05:59;;;;;;;23.75;13.40;;;;;;;-0.03;100.00;93076.31;5070103;28;20047;-85
2022/01/04 06:08:30;;;;;;;23.48;16.45;;;;;;;-0.05;100.00;93082.44;5070207;28;20127;-85
2022/01/04 06:10:57;;;;;;;29.17;19.25;;;;;;;-0.15;100.00;93074.94;5067767;28;20411;-85
2022/01/04 06:16:08;;;;;;;36.28;22.48;;;;;;;-0.11;100.00;93093.91;5070635;28;20431;-85
2022/01/04 06:18:37;;;;;;;79.60;47.40;;;;;;;-0.13;100.00;93088.22;5070663;28;20502;-84
2022/01/04 06:21:05;;;;;;;124.63;82.68;;;;;;;-0.18;100.00;93086.13;5070805;28;20056;-85
2022/01/04 06:23:32;;;;;;;108.40;69.07;;;;;;;-0.29;100.00;93083.84;5070808;28;20072;-85
2022/01/04 06:25:59;;;;;;;99.47;66.43;;;;;;;-0.35;100.00;93085.22;5070622;28;20040;-85
2022/01/04 06:28:26;;;;;;;118.78;68.93;;;;;;;-0.40;100.00;93084.88;5068311;28;20049;-85
2022/01/04 06:30:54;;;;;;;101.88;63.05;;;;;;;-0.37;100.00;93086.31;5070480;28;20384;-85
2022/01/04 06:33:21;;;;;;;114.28;73.50;;;;;;;-0.38;100.00;93079.69;5070855;28;20095;-84
2022/01/04 06:35:50;;;;;;;186.15;111.97;;;;;;;-0.68;100.00;93080.69;5070551;28;20494;-84
2022/01/04 06:38:17;;;;;;;180.63;103.40;;;;;;;-0.78;100.00;93066.56;5070749;28;20495;-84
2022/01/04 06:40:44;;;;;;;160.32;99.63;;;;;;;-0.77;100.00;93068.94;5070489;28;20056;-85
2022/01/04 06:43:11;;;;;;;111.97;69.20;;;;;;;-0.78;100.00;93072.41;5070591;28;20071;-85
2022/01/04 06:45:38;;;;;;;86.30;53.63;;;;;;;-0.80;100.00;93069.22;5070404;28;20056;-85
2022/01/04 06:48:05;;;;;;;96.15;62.17;;;;;;;-0.64;100.00;93082.94;5070635;28;20044;-84
2022/01/04 06:50:32;;;;;;;86.78;56.55;;;;;;;-0.47;100.00;93079.59;5070393;28;20065;-84
2022/01/04 06:53:00;;;;;;;92.75;59.88;;;;;;;-0.33;100.00;93078.28;5070346;28;20059;-85
2022/01/04 06:55:27;;;;;;;122.20;73.93;;;;;;;-0.17;100.00;93080.16;5070321;28;20049;-84
2022/01/04 06:57:54;;;;;;;86.68;57.17;;;;;;;-0.05;100.00;93087.50;5070298;28;20446;-85
2022/01/04 07:00:21;;;;;;;86.70;54.30;;;;;;;0.03;100.00;93084.22;5070293;28;20048;-85
2022/01/04 07:02:48;;;;;;;90.65;58.10;;;;;;;0.15;100.00;93082.25;5070213;28;20536;-85
2022/01/04 07:05:15;;;;;;;100.82;63.50;;;;;;;0.28;100.00;93086.91;5070460;28;20048;-85
2022/01/04 07:07:42;;;;;;;106.80;66.97;;;;;;;0.34;100.00;93089.63;5070286;28;20048;-85
2022/01/04 07:10:10;;;;;;;89.53;57.80;;;;;;;0.37;100.00;93083.47;5068011;28;20049;-84
2022/01/04 07:12:37;;;;;;;71.78;48.17;;;;;;;0.34;100.00;93073.66;5070142;28;20487;-84
2022/01/04 07:15:05;;;;;;;78.80;50.55;;;;;;;0.46;100.00;93069.16;5070392;28;20052;-85
2022/01/04 07:17:31;;;;;;;76.32;52.47;;;;;;;0.53;100.00;93060.81;5070422;28;20415;-84
2022/01/04 07:19:58;;;;;;;85.45;53.35;;;;;;;0.76;100.00;93083.03;5070223;28;20052;-85
2022/01/04 07:22:25;;;;;;;66.07;43.03;;;;;;;0.82;100.00;93084.13;5073155;28;20063;-84
2022/01/04 07:24:52;;;;;;;63.67;41.75;;;;;;;0.80;100.00;93089.34;5073880;28;20060;-84
2022/01/04 07:27:20;;;;;;;68.53;43.15;;;;;;;0.92;100.00;93089.06;5073821;28;20044;-84
2022/01/04 07:29:47;;;;;;;120.15;75.97;;;;;;;0.95;100.00;93073.59;5073940;28;20053;-84
2022/01/04 07:32:13;;;;;;;89.63;57.90;;;;;;;1.09;100.00;93076.44;5073791;28;20036;-84
2022/01/04 07:34:40;;;;;;;73.90;44.53;;;;;;;1.17;100.00;93076.47;5073572;28;20053;-84
2022/01/04 07:37:07;;;;;;;70.25;43.55;;;;;;;1.22;100.00;93070.94;5073213;28;20044;-84
2022/01/04 07:39:34;;;;;;;114.60;63.90;;;;;;;1.28;100.00;93071.13;5073332;28;20505;-84
2022/01/04 07:42:02;;;;;;;142.88;97.78;;;;;;;1.38;100.00;93070.97;5073618;28;20052;-84
2022/01/04 07:44:30;;;;;;;120.55;75.68;;;;;;;1.42;100.00;93072.25;5073050;28;20041;-84
2022/01/04 07:46:57;;;;;;;110.45;70.43;;;;;;;1.54;100.00;93084.59;5073853;28;20041;-84
2022/01/04 07:49:24;;;;;;;115.20;72.25;;;;;;;1.47;100.00;93064.19;5073646;28;20094;-84
2022/01/04 07:51:51;;;;;;;101.85;67.55;;;;;;;1.60;100.00;93087.31;5073344;28;20048;-84
2022/01/04 07:54:18;;;;;;;109.18;70.78;;;;;;;1.61;100.00;93088.06;5072995;28;20407;-84
2022/01/04 07:56:44;;;;;;;104.68;70.03;;;;;;;1.69;100.00;93077.16;5072938;28;20056;-83
2022/01/04 07:59:11;;;;;;;114.13;68.85;;;;;;;1.45;100.00;93036.47;5073266;28;20075;-83
2022/01/04 08:01:40;;;;;;;132.63;78.72;;;;;;;1.69;100.00;93075.44;5072624;28;20063;-83
2022/01/04 08:04:07;;;;;;;103.25;61.53;;;;;;;1.82;100.00;93080.03;5073152;28;20052;-83
2022/01/04 08:06:34;;;;;;;88.07;53.13;;;;;;;1.71;100.00;93071.00;5073024;28;20045;-83
2022/01/04 08:09:01;;;;;;;96.63;65.50;;;;;;;1.63;100.00;93081.13;5073261;28;20048;-82
2022/01/04 08:11:27;;;;;;;123.45;78.25;;;;;;;1.53;100.00;93086.31;5072979;28;20392;-83
2022/01/04 08:13:54;;;;;;;119.25;80.60;;;;;;;1.67;100.00;93079.06;5073098;28;20052;-83
2022/01/04 08:16:21;;;;;;;109.03;69.97;;;;;;;1.59;100.00;93052.78;5072830;28;20457;-83
2022/01/04 08:18:49;;;;;;;102.97;65.85;;;;;;;1.77;100.00;93082.25;5072878;28;20055;-83
2022/01/04 08:21:16;;;;;;;99.28;62.40;;;;;;;1.71;100.00;93077.81;5072578;28;20407;-83
2022/01/04 08:23:43;;;;;;;89.28;57.95;;;;;;;1.79;100.00;93079.53;5072739;28;20052;-83
2022/01/04 08:26:10;;;;;;;85.85;53.30;;;;;;;1.63;100.00;93049.94;5072931;28;20388;-83
2022/01/04 08:28:37;;;;;;;67.85;45.42;;;;;;;1.98;100.00;93075.88;5072692;28;20045;-83
2022/01/04 08:31:03;;;;;;;56.40;37.88;;;;;;;2.08;100.00;93073.97;5072664;28;20056;-83
2022/01/04 08:33:30;;;;;;;49.80;31.08;;;;;;;2.18;100.00;93073.00;5071589;28;20487;-83
2022/01/04 08:35:58;;;;;;;59.22;40.28;;;;;;;1.96;100.00;93027.13;5072436;28;20052;-83
2022/01/04 08:38:25;;;;;;;66.03;38.65;;;;;;;1.92;100.00;93063.84;5072437;28;20130;-83
2022/01/04 08:40:52;;;;;;;60.08;37.35;;;;;;;1.90;100.00;93048.81;5072646;28;20048;-83
2022/01/04 08:43:19;;;;;;;68.25;37.55;;;;;;;1.97;100.00;93061.63;5072320;28;20053;-83
2022/01/04 08:45:47;;;;;;;181.05;110.57;;;;;;;1.97;100.00;93059.09;5072366;28;20052;-83
2022/01/04 08:48:13;;;;;;;111.80;66.60;;;;;;;1.98;100.00;93048.81;5072082;28;20497;-84
2022/01/04 08:50:41;;;;;;;77.60;39.30;;;;;;;2.06;100.00;93044.66;5072462;28;20048;-84
2022/01/04 08:53:11;;;;;;;81.25;44.60;;;;;;;2.04;100.00;93049.13;5069151;28;20040;-84
2022/01/04 08:55:38;;;;;;;89.80;45.45;;;;;;;2.06;100.00;93039.59;5072084;28;20080;-83
2022/01/04 08:58:05;;;;;;;91.68;48.45;;;;;;;2.16;100.00;93037.69;5072039;28;20139;-84
2022/01/04 09:00:32;;;;;;;88.93;46.25;;;;;;;2.26;100.00;93030.69;5072042;28;20045;-83
2022/01/04 09:03:00;;;;;;;100.43;51.78;;;;;;;2.39;100.00;93021.78;5072331;28;20045;-84
2022/01/04 09:05:27;;;;;;;80.80;44.13;;;;;;;2.45;100.00;93016.03;5071877;28;20083;-84
2022/01/04 09:07:54;;;;;;;107.03;51.83;;;;;;;2.53;100.00;93016.03;5071911;28;20055;-84
2022/01/04 09:10:22;;;;;;;101.30;53.90;;;;;;;2.37;100.00;92994.06;5071954;28;20491;-84
2022/01/04 09:12:57;;;;;;;169.30;84.85;;;;;;;2.55;100.00;93010.81;5071796;28;20090;-84
2022/01/04 09:15:33;;;;;;;120.70;59.22;;;;;;;2.54;100.00;93002.38;5071753;28;20076;-84
2022/01/04 09:20:49;;;;;;;109.90;53.60;;;;;;;2.73;100.00;92989.47;5071831;28;20472;-84
2022/01/04 09:23:18;;;;;;;111.47;53.88;;;;;;;2.70;100.00;92990.59;5071575;28;20053;-84
2022/01/04 09:25:47;;;;;;;112.95;52.58;;;;;;;2.88;100.00;92992.09;5071578;28;20085;-84
2022/01/04 09:28:14;;;;;;;113.45;47.58;;;;;;;2.70;100.00;92956.81;5071533;28;20048;-84
2022/01/04 09:30:42;;;;;;;124.95;51.88;;;;;;;3.03;100.00;92987.88;5071514;28;21336;-84
2022/01/04 09:33:09;;;;;;;130.10;49.95;;;;;;;3.11;100.00;92968.47;5071428;28;20102;-83
2022/01/04 09:35:37;;;;;;;108.38;44.88;;;;;;;3.24;100.00;92978.06;5071317;28;20045;-83
2022/01/04 09:38:05;;;;;;;134.35;46.83;;;;;;;3.19;100.00;92948.09;5071275;28;20491;-83
2022/01/04 09:40:33;;;;;;;108.10;41.10;;;;;;;3.37;100.00;92957.94;5071189;28;20045;-83
2022/01/04 09:43:03;;;;;;;93.18;38.00;;;;;;;3.44;100.00;92941.09;5071318;28;20076;-83
2022/01/04 09:45:30;;;;;;;76.47;40.35;;;;;;;3.57;100.00;92937.94;5071284;28;20048;-83
2022/01/04 09:47:57;;;;;;;206.68;105.25;;;;;;;3.67;100.00;92940.25;5071148;28;20056;-83
2022/01/04 09:50:24;;;;;;;82.35;42.42;;;;;;;4.07;100.00;92936.66;5071127;28;20053;-83
2022/01/04 09:52:53;;;;;;;83.75;38.58;;;;;;;4.05;100.00;92938.56;5070973;28;20052;-83
2022/01/04 09:55:19;;;;;;;101.75;46.35;;;;;;;4.23;100.00;92931.38;5071277;28;20079;-83
2022/01/04 09:57:48;;;;;;;80.40;41.58;;;;;;;4.31;100.00;92937.31;5071403;28;20127;-83
2022/01/04 10:00:18;;;;;;;90.72;37.85;;;;;;;4.37;100.00;92918.81;5070940;28;20049;-83
2022/01/04 10:02:47;;;;;;;81.28;36.42;;;;;;;4.46;100.00;92922.84;5071019;28;20056;-83
2022/01/04 10:05:16;;;;;;;78.05;40.90;;;;;;;4.62;100.00;92913.38;5070958;28;20048;-84
2022/01/04 10:07:44;;;;;;;85.65;44.63;;;;;;;4.63;100.00;92902.28;5071159;28;20052;-83
2022/01/04 10:10:12;;;;;;;82.53;48.90;;;;;;;4.77;100.00;92903.19;5071164;28;20041;-83
2022/01/04 10:12:53;;;;;;;79.25;45.17;;;;;;;4.74;100.00;92873.00;5070783;28;20136;-84
2022/01/04 10:15:33;;;;;;;77.93;45.58;;;;;;;5.04;100.00;92899.13;5070750;28;20483;-83
2022/01/04 10:18:04;;;;;;;72.75;42.35;;;;;;;4.33;100.00;92788.69;5070527;28;20048;-83
2022/01/04 10:20:31;;;;;;;22.98;15.50;;;;;;;5.47;100.00;92882.97;5070766;28;20055;-83
2022/01/04 10:23:09;;;;;;;20.65;13.38;;;;;;;5.80;100.00;92894.34;5070843;28;20063;-83
2022/01/04 10:25:36;;;;;;;17.65;8.90;;;;;;;6.06;100.00;92889.59;5070890;28;20044;-83
2022/01/04 10:28:04;;;;;;;20.15;6.88;;;;;;;6.34;100.00;92886.94;5070794;28;20129;-83
2022/01/04 10:30:36;;;;;;;14.30;7.55;;;;;;;6.47;100.00;92870.13;5070529;28;20049;-82
2022/01/04 10:33:06;;;;;;;17.67;10.18;;;;;;;6.69;100.00;92873.31;5070627;28;20044;-83
2022/01/04 10:35:36;;;;;;;13.60;5.55;;;;;;;6.90;100.00;92864.69;5070570;28;20052;-82
2022/01/04 10:38:11;;;;;;;14.50;8.40;;;;;;;7.21;100.00;92871.00;5069702;28;20056;-84
2022/01/04 10:40:39;;;;;;;19.13;8.73;;;;;;;7.34;100.00;92861.75;5070565;28;20051;-83
2022/01/04 10:43:11;;;;;;;11.05;7.57;;;;;;;7.56;99.26;92870.00;5070380;28;20048;-83
2022/01/04 10:45:42;;;;;;;16.55;10.50;;;;;;;7.70;99.24;92877.63;5070736;28;20053;-83
2022/01/04 10:48:21;;;;;;;10.75;4.88;;;;;;;7.74;97.94;92873.69;5070441;28;20483;-83
2022/01/04 10:50:51;;;;;;;11.25;5.38;;;;;;;7.83;96.43;92877.59;5070518;28;20055;-83
2022/01/04 10:53:25;;;;;;;21.58;12.68;;;;;;;7.89;93.16;92863.22;5070393;28;20052;-83
2022/01/04 10:55:56;;;;;;;23.63;10.75;;;;;;;8.07;95.19;92872.81;5071384;28;20044;-84
2022/01/04 10:58:30;;;;;;;20.38;12.30;;;;;;;8.16;92.69;92858.78;5075640;28;20044;-84
2022/01/04 11:00:59;;;;;;;10.13;5.45;;;;;;;8.25;93.46;92861.13;5074546;28;20055;-82
2022/01/04 11:03:31;;;;;;;24.48;15.13;;;;;;;8.29;91.81;92857.19;5074405;28;20047;-82
2022/01/04 11:06:01;;;;;;;12.65;6.28;;;;;;;8.39;92.33;92857.50;5074100;28;20053;-82
2022/01/04 11:08:29;;;;;;;66.20;38.33;;;;;;;8.51;88.77;92856.84;5074454;28;20049;-82
2022/01/04 11:10:56;;;;;;;13.25;7.40;;;;;;;8.63;90.58;92854.47;5074232;28;20045;-82
2022/01/04 11:13:24;;;;;;;12.82;7.65;;;;;;;8.74;88.28;92856.38;5074130;28;20389;-82
2022/01/04 11:15:56;;;;;;;12.40;6.60;;;;;;;8.60;88.19;92822.38;5074814;28;20075;-82
2022/01/04 11:18:26;;;;;;;15.10;7.85;;;;;;;8.77;86.82;92832.13;5074442;28;20060;-84
2022/01/04 11:20:53;;;;;;;7.90;4.40;;;;;;;8.81;87.43;92833.28;5073881;28;20052;-83
2022/01/04 11:23:25;;;;;;;13.13;5.25;;;;;;;8.81;87.12;92826.38;5074166;28;20056;-83
2022/01/04 11:25:53;;;;;;;14.45;6.70;;;;;;;9.06;87.83;92837.63;5073786;28;20499;-83
2022/01/04 11:28:21;;;;;;;37.45;18.23;;;;;;;9.08;87.06;92831.31;5073865;28;20048;-83